Betania, Brazil
Current Conditions -  °F | °C
As of 4:00 AM on Sunday 26 Oct 2014 (Local Time) from SBJU Reporting Station
Few Clouds Few Clouds  
Wind Chill: 77°   Ceiling: Unl
Heat Index: 79°   Visibility: 6mi
Dew Point: 63°   Wind: 6mph
Humidity: 61%   Direction: 130°SE
Pressure: 29.97"   Gusts: NA
Location:  8.27°S, 38.03°W
Report Text: SBJU 260700Z 13005KT 9999 FEW020 25/17 Q1015
Loading
Personal Weather Stations






























Interactive Weather Map
Tropical Storm Tracking
New forecast layout! Learn more

10-Day Weather Forecast

Advertisements
Track Severe Weather on mobile